Time;durP1;ratioP1;P1;durP2;ratioP2;P2;SDS_P1;SDS_P2;PMS_P1;PMS_P2;Temp;Humidity;BMP_temperature;BMP_pressure;BME280_temperature;BME280_humidity;BME280_pressure;Samples;Min_cycle;Max_cycle;Signal;HPM_P1;HPM_P2
2023/10/24 00:01:00;;;;;;;;;;;10.60;99.90;;;;;;4861136;29;19975;-87
2023/10/24 00:03:26;;;;;;;;;;;10.70;99.90;;;;;;4864238;29;20440;-87
2023/10/24 00:05:52;;;;;;;;;;;10.60;99.90;;;;;;4863699;29;19932;-89
2023/10/24 00:08:17;;;;;;;;;;;10.60;99.90;;;;;;4862715;29;19928;-88
2023/10/24 00:10:43;;;;;;;;;;;10.60;99.90;;;;;;4863518;29;19935;-86
2023/10/24 00:13:09;;;;;;;;;;;10.60;99.90;;;;;;4861324;29;19928;-86
2023/10/24 00:15:34;;;;;;;;;;;10.60;99.90;;;;;;4860986;29;19932;-87
2023/10/24 00:18:00;;;;;;;;;;;10.60;99.90;;;;;;4860758;29;19932;-88
2023/10/24 00:20:25;;;;;;;;;;;10.60;99.90;;;;;;4860176;29;19992;-86
2023/10/24 00:22:51;;;;;;;;;;;10.60;99.90;;;;;;4862081;29;19939;-88
2023/10/24 00:25:17;;;;;;;;;;;10.60;99.90;;;;;;4861270;29;20056;-87
2023/10/24 00:27:42;;;;;;;;;;;10.60;99.90;;;;;;4861414;29;19928;-86
2023/10/24 00:30:08;;;;;;;;;;;10.60;99.90;;;;;;4861372;29;20011;-87
2023/10/24 00:32:34;;;;;;;;;;;10.60;99.90;;;;;;4859849;29;19943;-86
2023/10/24 00:34:59;;;;;;;;;;;10.70;99.90;;;;;;4861162;29;19929;-87
2023/10/24 00:37:25;;;;;;;;;;;10.70;99.90;;;;;;4861349;29;20377;-87
2023/10/24 00:39:50;;;;;;;;;;;10.70;99.90;;;;;;4861037;29;19928;-87
2023/10/24 00:42:16;;;;;;;;;;;10.70;99.90;;;;;;4875253;29;19935;-88
2023/10/24 00:44:41;;;;;;;;;;;10.70;99.90;;;;;;4861472;29;20364;-87
2023/10/24 00:47:07;;;;;;;;;;;10.70;99.90;;;;;;4860089;29;19928;-86
2023/10/24 00:49:33;;;;;;;;;;;10.70;99.90;;;;;;4860074;29;19978;-86
2023/10/24 00:51:58;;;;;;;;;;;10.70;99.90;;;;;;4860613;29;19932;-85
2023/10/24 00:54:26;;;;;;;;;;;10.70;99.90;;;;;;4860855;29;19979;-88
2023/10/24 00:56:52;;;;;;;;;;;10.70;99.90;;;;;;4861188;29;19929;-87
2023/10/24 00:59:19;;;;;;;;;;;10.70;99.90;;;;;;4859754;29;20381;-86
2023/10/24 01:01:45;;;;;;;;;;;10.70;99.90;;;;;;4860910;29;20396;-89
2023/10/24 01:04:11;;;;;;;;;;;10.70;99.90;;;;;;4859978;29;20139;-87
2023/10/24 01:06:37;;;;;;;;;;;10.70;99.90;;;;;;4859961;29;19935;-85
2023/10/24 01:09:03;;;;;;;;;;;10.70;99.90;;;;;;4845302;29;19928;-88
2023/10/24 01:11:29;;;;;;;;;;;10.70;99.90;;;;;;4859892;29;19928;-86
2023/10/24 01:13:56;;;;;;;;;;;10.70;99.90;;;;;;4861512;29;19928;-87
2023/10/24 01:16:21;;;;;;;;;;;10.80;99.90;;;;;;4861408;29;20027;-86
2023/10/24 01:18:47;;;;;;;;;;;10.70;99.90;;;;;;4845006;29;20422;-89
2023/10/24 01:21:12;;;;;;;;;;;10.80;99.90;;;;;;4861940;29;19991;-88
2023/10/24 01:23:40;;;;;;;;;;;10.80;99.90;;;;;;4861025;29;20446;-89
2023/10/24 01:26:06;;;;;;;;;;;10.70;99.90;;;;;;4859949;29;19932;-87
2023/10/24 01:28:32;;;;;;;;;;;10.70;99.90;;;;;;4859895;29;20018;-87
2023/10/24 01:30:57;;;;;;;;;;;10.80;99.90;;;;;;4860545;29;19978;-87
2023/10/24 01:33:23;;;;;;;;;;;10.70;99.90;;;;;;4859689;29;20032;-89
2023/10/24 01:35:49;;;;;;;;;;;10.80;99.90;;;;;;4860968;29;19928;-86
2023/10/24 01:38:14;;;;;;;;;;;10.80;99.90;;;;;;4860657;29;20023;-87
2023/10/24 01:40:40;;;;;;;;;;;10.80;99.90;;;;;;4859459;29;19955;-86
2023/10/24 01:43:05;;;;;;;;;;;10.80;99.90;;;;;;4861475;29;19979;-86
2023/10/24 01:45:31;;;;;;;;;;;10.80;99.90;;;;;;4861325;29;20387;-89
2023/10/24 01:47:58;;;;;;;;;;;10.80;99.90;;;;;;4863212;29;19950;-86
2023/10/24 01:50:23;;;;;;;;;;;10.80;99.90;;;;;;4864740;29;19928;-86
2023/10/24 01:52:49;;;;;;;;;;;10.80;99.90;;;;;;4864183;29;19934;-87
2023/10/24 01:55:14;;;;;;;;;;;10.80;99.90;;;;;;4863956;29;19981;-87
2023/10/24 01:57:40;;;;;;;;;;;10.80;99.90;;;;;;4865131;29;19932;-86
2023/10/24 02:00:06;;;;;;;;;;;10.80;99.90;;;;;;4849378;29;19971;-87
2023/10/24 02:02:31;;;;;;;;;;;10.80;99.90;;;;;;4863258;29;19928;-87
2023/10/24 02:04:57;;;;;;;;;;;10.80;99.90;;;;;;4863070;29;19928;-86
2023/10/24 02:07:23;;;;;;;;;;;10.90;99.90;;;;;;4847659;29;19928;-88
2023/10/24 02:09:50;;;;;;;;;;;10.80;99.90;;;;;;4862712;29;19928;-87
2023/10/24 02:12:15;;;;;;;;;;;10.90;99.90;;;;;;4863793;29;19934;-87
2023/10/24 02:14:41;;;;;;;;;;;10.90;99.90;;;;;;4863791;29;19928;-86
2023/10/24 02:17:06;;;;;;;;;;;10.90;99.90;;;;;;4864499;29;19928;-87
2023/10/24 02:19:32;;;;;;;;;;;10.90;99.90;;;;;;4863213;29;19982;-88
2023/10/24 02:21:58;;;;;;;;;;;10.90;99.90;;;;;;4863473;29;20057;-87
2023/10/24 02:24:23;;;;;;;;;;;10.90;99.90;;;;;;4862641;29;20068;-87
2023/10/24 02:26:49;;;;;;;;;;;10.90;99.90;;;;;;4862653;29;19928;-88
2023/10/24 02:29:15;;;;;;;;;;;10.90;99.90;;;;;;4862455;29;20024;-91
2023/10/24 02:31:40;;;;;;;;;;;10.90;99.90;;;;;;4862289;29;19932;-87
2023/10/24 02:34:06;;;;;;;;;;;10.90;99.90;;;;;;4863037;29;19935;-87
2023/10/24 02:36:32;;;;;;;;;;;10.90;99.90;;;;;;4862189;29;20284;-87
2023/10/24 02:38:57;;;;;;;;;;;10.90;99.90;;;;;;4862309;29;19932;-86
2023/10/24 02:41:23;;;;;;;;;;;10.90;99.90;;;;;;4862086;29;19982;-90
2023/10/24 02:43:48;;;;;;;;;;;10.90;99.90;;;;;;4863566;29;19935;-88
2023/10/24 02:46:14;;;;;;;;;;;10.90;99.90;;;;;;4847554;29;19928;-88
2023/10/24 02:48:40;;;;;;;;;;;10.90;99.90;;;;;;4862417;29;19961;-86
2023/10/24 02:51:05;;;;;;;;;;;10.90;99.90;;;;;;4862563;29;20360;-87
2023/10/24 02:53:31;;;;;;;;;;;11.00;99.90;;;;;;4861802;29;19986;-87
2023/10/24 02:56:00;;;;;;;;;;;11.00;99.90;;;;;;4862033;29;19985;-87
2023/10/24 02:58:25;;;;;;;;;;;11.00;99.90;;;;;;4862771;29;20395;-87
2023/10/24 03:00:51;;;;;;;;;;;11.00;99.90;;;;;;4863714;29;19928;-86
2023/10/24 03:03:16;;;;;;;;;;;11.00;99.90;;;;;;4863344;29;20238;-87
2023/10/24 03:05:42;;;;;;;;;;;11.00;99.90;;;;;;4863569;29;20010;-86
2023/10/24 03:08:08;;;;;;;;;;;11.00;99.90;;;;;;4863249;29;19928;-86
2023/10/24 03:10:40;;;;;;;;;;;11.10;99.90;;;;;;4861792;29;19928;-87
2023/10/24 03:13:05;;;;;;;;;;;11.10;99.90;;;;;;4861300;29;19928;-87
2023/10/24 03:15:32;;;;;;;;;;;11.10;99.90;;;;;;4861701;29;20093;-87
2023/10/24 03:17:57;;;;;;;;;;;11.10;99.90;;;;;;4862499;29;20440;-86
2023/10/24 03:20:25;;;;;;;;;;;11.10;99.90;;;;;;4861757;29;20015;-88
2023/10/24 03:22:51;;;;;;;;;;;11.10;99.90;;;;;;4862578;29;20039;-87
2023/10/24 03:25:17;;;;;;;;;;;11.20;99.90;;;;;;4861187;29;20364;-86
2023/10/24 03:27:42;;;;;;;;;;;11.20;99.90;;;;;;4862755;29;19934;-87
2023/10/24 03:30:08;;;;;;;;;;;11.20;99.90;;;;;;4862317;29;19986;-87
2023/10/24 03:32:33;;;;;;;;;;;11.20;99.90;;;;;;4845632;29;20010;-88
2023/10/24 03:34:59;;;;;;;;;;;11.20;99.90;;;;;;4860953;29;19928;-87
2023/10/24 03:37:25;;;;;;;;;;;11.20;99.90;;;;;;4861839;29;19928;-87
2023/10/24 03:39:50;;;;;;;;;;;11.20;99.90;;;;;;4860966;29;19939;-88
2023/10/24 03:42:16;;;;;;;;;;;11.30;99.90;;;;;;4860946;29;19935;-92
2023/10/24 03:44:41;;;;;;;;;;;11.30;99.90;;;;;;4862069;29;19984;-87
2023/10/24 03:47:07;;;;;;;;;;;11.30;99.90;;;;;;4862078;29;19935;-85
2023/10/24 03:49:33;;;;;;;;;;;11.30;99.90;;;;;;4861159;29;19980;-86
2023/10/24 03:51:59;;;;;;;;;;;11.30;99.90;;;;;;4861893;29;20372;-85
2023/10/24 03:54:25;;;;;;;;;;;11.40;99.90;;;;;;4860942;29;19928;-90
2023/10/24 03:56:50;;;;;;;;;;;11.40;99.90;;;;;;4860847;29;19939;-87
2023/10/24 03:59:16;;;;;;;;;;;11.40;99.90;;;;;;4845648;29;19929;-85
2023/10/24 04:01:41;;;;;;;;;;;11.40;99.90;;;;;;4862478;29;20004;-86
2023/10/24 04:04:07;;;;;;;;;;;11.40;99.90;;;;;;4860422;29;19928;-87
2023/10/24 04:06:35;;;;;;;;;;;11.40;99.90;;;;;;4860826;29;20027;-87
2023/10/24 04:09:04;;;;;;;;;;;11.40;99.90;;;;;;4861787;29;19928;-89
2023/10/24 04:11:31;;;;;;;;;;;11.50;99.90;;;;;;4860627;29;19983;-87
2023/10/24 04:13:56;;;;;;;;;;;11.40;99.90;;;;;;4861425;29;20001;-86
2023/10/24 04:16:22;;;;;;;;;;;11.40;99.90;;;;;;4861033;29;19935;-87
2023/10/24 04:18:47;;;;;;;;;;;11.40;99.90;;;;;;4860508;29;19939;-86
2023/10/24 04:21:14;;;;;;;;;;;11.40;99.90;;;;;;4861617;29;20313;-90
2023/10/24 04:23:39;;;;;;;;;;;11.40;99.90;;;;;;4861317;29;19928;-89
2023/10/24 04:26:05;;;;;;;;;;;11.40;99.90;;;;;;4860147;29;19975;-87
2023/10/24 04:28:31;;;;;;;;;;;11.40;99.90;;;;;;4861098;29;19928;-86
2023/10/24 04:30:56;;;;;;;;;;;11.40;99.90;;;;;;4860989;29;20225;-86
2023/10/24 04:33:22;;;;;;;;;;;11.40;99.90;;;;;;4859999;29;19928;-87
2023/10/24 04:35:50;;;;;;;;;;;11.40;99.90;;;;;;4861918;29;19928;-90
2023/10/24 04:38:16;;;;;;;;;;;11.40;99.90;;;;;;4845795;29;19928;-86
2023/10/24 04:40:42;;;;;;;;;;;11.40;99.90;;;;;;4862012;29;19928;-87
2023/10/24 04:43:08;;;;;;;;;;;11.40;99.90;;;;;;4860803;29;19929;-85
2023/10/24 04:45:34;;;;;;;;;;;11.40;99.90;;;;;;4844672;29;19935;-87
2023/10/24 04:48:00;;;;;;;;;;;11.40;99.90;;;;;;4845079;29;20276;-86
2023/10/24 04:50:26;;;;;;;;;;;11.40;99.90;;;;;;4861259;29;19928;-84
2023/10/24 04:52:52;;;;;;;;;;;11.40;99.90;;;;;;4859876;29;20376;-85
2023/10/24 04:55:18;;;;;;;;;;;11.30;99.90;;;;;;4844651;29;19980;-90
2023/10/24 04:57:43;;;;;;;;;;;11.30;99.90;;;;;;4844688;29;19977;-86
2023/10/24 05:00:12;;;;;;;;;;;11.30;99.90;;;;;;4860083;29;19935;-85
2023/10/24 05:02:38;;;;;;;;;;;11.30;99.90;;;;;;4859984;29;19928;-87
2023/10/24 05:05:04;;;;;;;;;;;11.30;99.90;;;;;;4860563;29;20260;-89
2023/10/24 05:07:30;;;;;;;;;;;11.30;99.90;;;;;;4859957;29;20026;-85
2023/10/24 05:09:55;;;;;;;;;;;11.30;99.90;;;;;;4860673;29;20014;-85
2023/10/24 05:12:21;;;;;;;;;;;11.30;99.90;;;;;;4860183;29;20437;-85
2023/10/24 05:14:46;;;;;;;;;;;11.30;99.90;;;;;;4844560;29;19928;-86
2023/10/24 05:17:13;;;;;;;;;;;11.30;99.90;;;;;;4860607;29;19928;-92
2023/10/24 05:19:39;;;;;;;;;;;11.30;99.90;;;;;;4860112;29;19928;-87
2023/10/24 05:22:05;;;;;;;;;;;11.30;99.90;;;;;;4864632;29;19928;-85
2023/10/24 05:24:30;;;;;;;;;;;11.30;99.90;;;;;;4863583;29;20345;-86
2023/10/24 05:26:56;;;;;;;;;;;11.30;99.90;;;;;;4862858;29;19979;-91
2023/10/24 05:29:21;;;;;;;;;;;11.30;99.90;;;;;;4863491;29;19984;-87
2023/10/24 05:31:47;;;;;;;;;;;11.30;99.90;;;;;;4847830;29;19928;-86
2023/10/24 05:34:12;;;;;;;;;;;11.30;99.90;;;;;;4863073;29;19928;-88
2023/10/24 05:36:38;;;;;;;;;;;11.30;99.90;;;;;;4864105;29;20022;-84
2023/10/24 05:39:04;;;;;;;;;;;11.30;99.90;;;;;;4863512;29;19964;-88
2023/10/24 05:41:29;;;;;;;;;;;11.30;99.90;;;;;;4851157;29;19928;-85
2023/10/24 05:43:55;;;;;;;;;;;11.30;99.90;;;;;;4866758;29;19936;-90
2023/10/24 05:46:21;;;;;;;;;;;11.20;99.90;;;;;;4866327;29;19932;-84
2023/10/24 05:48:46;;;;;;;;;;;11.30;99.90;;;;;;4850184;29;19928;-84
2023/10/24 05:51:20;;;;;;;;;;;11.20;99.90;;;;;;4863769;29;19928;-85
2023/10/24 05:53:46;;;;;;;;;;;11.20;99.90;;;;;;4864872;29;19992;-84
2023/10/24 05:56:11;;;;;;;;;;;11.30;99.90;;;;;;4862942;29;19928;-91
2023/10/24 05:58:37;;;;;;;;;;;11.20;99.90;;;;;;4863046;29;20384;-86
2023/10/24 06:01:02;;;;;;;;;;;11.30;99.90;;;;;;4863606;29;19928;-86
2023/10/24 06:03:28;;;;;;;;;;;11.30;99.90;;;;;;4862904;29;19928;-85
2023/10/24 06:05:54;;;;;;;;;;;11.30;99.90;;;;;;4862570;29;19950;-86
2023/10/24 06:08:19;;;;;;;;;;;11.30;99.90;;;;;;4847364;29;19932;-87
2023/10/24 06:10:53;;;;;;;;;;;11.20;99.90;;;;;;4863619;29;19928;-85
2023/10/24 06:13:18;;;;;;;;;;;11.20;99.90;;;;;;4862829;29;19928;-85
2023/10/24 06:15:44;;;;;;;;;;;11.20;99.90;;;;;;4862827;29;19980;-86
2023/10/24 06:18:09;;;;;;;;;;;11.30;99.90;;;;;;4862652;29;19935;-86
2023/10/24 06:20:37;;;;;;;;;;;11.20;99.90;;;;;;4846984;29;20444;-86
2023/10/24 06:23:05;;;;;;;;;;;11.20;99.90;;;;;;4863803;29;19928;-84
2023/10/24 06:25:40;;;;;;;;;;;11.20;99.90;;;;;;4863421;29;20435;-85
2023/10/24 06:28:06;;;;;;;;;;;11.20;99.90;;;;;;4863476;29;20264;-85
2023/10/24 06:30:32;;;;;;;;;;;11.20;99.90;;;;;;4862723;29;19928;-87
2023/10/24 06:32:58;;;;;;;;;;;11.20;99.90;;;;;;4863669;29;19950;-87
2023/10/24 06:35:24;;;;;;;;;;;11.20;99.90;;;;;;4863216;29;20007;-86
2023/10/24 06:37:50;;;;;;;;;;;11.20;99.90;;;;;;4863032;29;20260;-88
2023/10/24 06:40:16;;;;;;;;;;;11.20;99.90;;;;;;4847066;29;20368;-88
2023/10/24 06:42:42;;;;;;;;;;;11.20;99.90;;;;;;4846852;29;19987;-86
2023/10/24 06:45:08;;;;;;;;;;;11.20;99.90;;;;;;4863244;29;19935;-86
2023/10/24 06:47:33;;;;;;;;;;;11.20;99.90;;;;;;4862093;29;19950;-86
2023/10/24 06:49:59;;;;;;;;;;;11.20;99.90;;;;;;4862146;29;20400;-88
2023/10/24 06:52:24;;;;;;;;;;;11.20;99.90;;;;;;4847296;29;19928;-86
2023/10/24 06:54:50;;;;;;;;;;;11.20;99.90;;;;;;4846530;29;20380;-88
2023/10/24 06:57:16;;;;;;;;;;;11.20;99.90;;;;;;4862803;29;20122;-87
2023/10/24 06:59:42;;;;;;;;;;;11.20;99.90;;;;;;4862621;29;19929;-90
2023/10/24 07:02:07;;;;;;;;;;;11.20;99.90;;;;;;4861846;29;19928;-85
2023/10/24 07:04:33;;;;;;;;;;;11.20;99.90;;;;;;4861857;29;19972;-87
2023/10/24 07:06:59;;;;;;;;;;;11.20;99.90;;;;;;4831889;29;19937;-86
2023/10/24 07:09:24;;;;;;;;;;;11.20;99.90;;;;;;4846403;29;19980;-86
2023/10/24 07:11:50;;;;;;;;;;;11.20;99.90;;;;;;4862380;29;19932;-87
2023/10/24 07:14:15;;;;;;;;;;;11.20;99.90;;;;;;4861646;29;19934;-89
2023/10/24 07:16:41;;;;;;;;;;;11.20;99.90;;;;;;4831142;29;19932;-86
2023/10/24 07:19:06;;;;;;;;;;;11.20;99.90;;;;;;4863011;29;19975;-86
2023/10/24 07:21:32;;;;;;;;;;;11.20;99.90;;;;;;4862891;29;19936;-90
2023/10/24 07:23:58;;;;;;;;;;;11.20;99.90;;;;;;4846242;29;19928;-86
2023/10/24 07:26:23;;;;;;;;;;;11.20;99.90;;;;;;4861913;29;19932;-88
2023/10/24 07:28:49;;;;;;;;;;;11.20;99.90;;;;;;4861474;29;20283;-86
2023/10/24 07:31:15;;;;;;;;;;;11.20;99.90;;;;;;4861664;29;19935;-86
2023/10/24 07:33:41;;;;;;;;;;;11.30;99.90;;;;;;4861113;29;20237;-87
2023/10/24 07:36:07;;;;;;;;;;;11.30;99.90;;;;;;4860984;29;19929;-85
2023/10/24 07:38:32;;;;;;;;;;;11.30;99.90;;;;;;4860957;29;20376;-87
2023/10/24 07:40:58;;;;;;;;;;;11.30;99.90;;;;;;4845851;29;19935;-85
2023/10/24 07:43:24;;;;;;;;;;;11.30;99.90;;;;;;4860692;29;20364;-84
2023/10/24 07:45:50;;;;;;;;;;;11.30;99.90;;;;;;4861514;29;19935;-85
2023/10/24 07:48:15;;;;;;;;;;;11.30;99.90;;;;;;4861248;29;19952;-88
2023/10/24 07:50:50;;;;;;;;;;;11.30;99.90;;;;;;4861332;29;19934;-84
2023/10/24 07:53:16;;;;;;;;;;;11.30;99.90;;;;;;4860614;29;20398;-87
2023/10/24 07:55:41;;;;;;;;;;;11.30;99.90;;;;;;4861656;29;19928;-88
2023/10/24 07:58:08;;;;;;;;;;;11.20;99.90;;;;;;4846277;29;19935;-88
2023/10/24 08:00:34;;;;;;;;;;;11.20;99.90;;;;;;4845534;29;20424;-87
2023/10/24 08:03:00;;;;;;;;;;;11.20;99.90;;;;;;4860825;29;19932;-86
2023/10/24 08:05:25;;;;;;;;;;;11.30;99.90;;;;;;4861818;29;20018;-86
2023/10/24 08:07:51;;;;;;;;;;;11.30;99.90;;;;;;4861049;29;19955;-88
2023/10/24 08:10:17;;;;;;;;;;;11.30;99.90;;;;;;4861246;29;20007;-86
2023/10/24 08:12:43;;;;;;;;;;;11.40;99.90;;;;;;4861342;29;19995;-86
2023/10/24 08:15:11;;;;;;;;;;;11.40;99.90;;;;;;4846306;29;20056;-92
2023/10/24 08:17:37;;;;;;;;;;;11.40;99.90;;;;;;4860176;29;19935;-88
2023/10/24 08:20:04;;;;;;;;;;;11.40;99.90;;;;;;4845022;29;19928;-86
2023/10/24 08:22:30;;;;;;;;;;;11.40;99.90;;;;;;4860816;29;19932;-85
2023/10/24 08:24:55;;;;;;;;;;;11.40;99.90;;;;;;4860875;29;19937;-86
2023/10/24 08:27:21;;;;;;;;;;;11.40;99.90;;;;;;4860363;29;19955;-88
2023/10/24 08:29:46;;;;;;;;;;;11.40;99.90;;;;;;4860651;29;19971;-86
2023/10/24 08:32:12;;;;;;;;;;;11.50;99.90;;;;;;4844993;29;19944;-87
2023/10/24 08:34:38;;;;;;;;;;;11.50;99.90;;;;;;4860415;29;20360;-85
2023/10/24 08:37:04;;;;;;;;;;;11.60;99.90;;;;;;4860973;29;19928;-88
2023/10/24 08:39:29;;;;;;;;;;;11.60;99.90;;;;;;4860373;29;19978;-87
2023/10/24 08:41:57;;;;;;;;;;;11.60;99.90;;;;;;4860065;29;19928;-85
2023/10/24 08:44:23;;;;;;;;;;;11.60;99.90;;;;;;4860594;29;20007;-85
2023/10/24 08:46:49;;;;;;;;;;;11.60;99.90;;;;;;4860610;29;19976;-88
2023/10/24 08:49:16;;;;;;;;;;;11.60;99.90;;;;;;4860490;29;19932;-87
2023/10/24 08:51:41;;;;;;;;;;;11.60;99.90;;;;;;4860993;29;20344;-87
2023/10/24 08:54:07;;;;;;;;;;;11.60;99.90;;;;;;4860001;29;20031;-87
2023/10/24 08:56:34;;;;;;;;;;;11.60;99.90;;;;;;4860012;29;20031;-89
2023/10/24 08:59:00;;;;;;;;;;;11.60;99.90;;;;;;4844689;29;20328;-92
2023/10/24 09:01:27;;;;;;;;;;;11.50;99.90;;;;;;4844785;29;20022;-86
2023/10/24 09:03:52;;;;;;;;;;;11.60;99.90;;;;;;4860026;29;20102;-87
2023/10/24 09:06:20;;;;;;;;;;;11.50;99.90;;;;;;4860030;29;20018;-86
2023/10/24 09:08:46;;;;;;;;;;;11.50;99.90;;;;;;4860169;29;19979;-88
2023/10/24 09:11:12;;;;;;;;;;;11.60;99.90;;;;;;4860035;29;19928;-85
2023/10/24 09:13:37;;;;;;;;;;;11.50;99.90;;;;;;4859743;29;19936;-85
2023/10/24 09:16:04;;;;;;;;;;;11.50;99.90;;;;;;4860746;29;19928;-84
2023/10/24 09:18:29;;;;;;;;;;;11.50;99.90;;;;;;4844713;29;19989;-84
2023/10/24 09:20:55;;;;;;;;;;;11.50;99.90;;;;;;4859629;29;19932;-86
2023/10/24 09:23:20;;;;;;;;;;;11.60;99.90;;;;;;4859946;29;19939;-89
2023/10/24 09:25:48;;;;;;;;;;;11.60;99.90;;;;;;4860323;29;19928;-87
2023/10/24 09:28:17;;;;;;;;;;;11.50;99.90;;;;;;4844659;29;19928;-86
2023/10/24 09:30:43;;;;;;;;;;;11.50;99.90;;;;;;4860737;29;20019;-85
2023/10/24 09:33:08;;;;;;;;;;;11.50;99.90;;;;;;4860024;29;20332;-87
2023/10/24 09:35:37;;;;;;;;;;;11.50;99.90;;;;;;4860054;29;19928;-86
2023/10/24 09:38:05;;;;;;;;;;;11.60;99.90;;;;;;4860127;29;19928;-86
2023/10/24 09:40:36;;;;;;;;;;;11.60;99.90;;;;;;4860127;29;19979;-89
2023/10/24 09:43:24;;;;;;;;;;;11.60;99.90;;;;;;4859545;29;19931;-86
2023/10/24 09:45:53;;;;;;;;;;;11.60;99.90;;;;;;4850368;29;20348;-87
2023/10/24 09:48:19;;;;;;;;;;;11.60;99.90;;;;;;4861040;29;20082;-87
2023/10/24 09:50:46;;;;;;;;;;;11.60;99.90;;;;;;4859832;29;19979;-87
2023/10/24 09:53:12;;;;;;;;;;;11.70;99.90;;;;;;4859356;29;20379;-86
2023/10/24 09:55:41;;;;;;;;;;;11.60;99.90;;;;;;4860447;29;19940;-90
2023/10/24 09:58:07;;;;;;;;;;;11.70;99.90;;;;;;4859993;29;19993;-86
2023/10/24 10:00:33;;;;;;;;;;;11.70;99.90;;;;;;4860875;29;19928;-85
2023/10/24 10:02:59;;;;;;;;;;;11.70;99.90;;;;;;4860755;29;19928;-85
2023/10/24 10:05:29;;;;;;;;;;;11.80;99.90;;;;;;4861646;29;19980;-88
2023/10/24 10:07:56;;;;;;;;;;;11.80;99.90;;;;;;4863330;29;19944;-85
2023/10/24 10:10:23;;;;;;;;;;;11.90;99.90;;;;;;4863148;29;19932;-88
2023/10/24 10:12:50;;;;;;;;;;;12.00;99.90;;;;;;4863420;29;19928;-86
2023/10/24 10:15:39;;;;;;;;;;;12.00;99.90;;;;;;4847450;29;19929;-87
2023/10/24 10:18:11;;;;;;;;;;;12.10;99.90;;;;;;4852855;29;19990;-86
2023/10/24 10:20:43;;;;;;;;;;;12.10;99.90;;;;;;4862561;29;19979;-84
2023/10/24 10:23:38;;;;;;;;;;;12.20;99.90;;;;;;4862713;29;19946;-92
2023/10/24 10:26:13;;;;;;;;;;;12.20;99.90;;;;;;4846311;29;20372;-86
2023/10/24 10:28:41;;;;;;;;;;;12.20;99.90;;;;;;4863342;29;20325;-86
2023/10/24 10:31:07;;;;;;;;;;;12.30;99.90;;;;;;4863217;29;19930;-84
2023/10/24 10:33:33;;;;;;;;;;;12.40;99.90;;;;;;4861962;29;19928;-88
2023/10/24 10:36:02;;;;;;;;;;;12.50;99.90;;;;;;4847268;29;20281;-87
2023/10/24 10:38:35;;;;;;;;;;;12.70;99.90;;;;;;4863155;29;19979;-87
2023/10/24 10:41:19;;;;;;;;;;;12.80;99.90;;;;;;4862641;29;19990;-85
2023/10/24 10:43:45;;;;;;;;;;;13.00;99.90;;;;;;4847873;29;19928;-87
2023/10/24 10:46:18;;;;;;;;;;;13.10;99.90;;;;;;4847096;29;19932;-84
2023/10/24 10:48:44;;;;;;;;;;;13.30;99.90;;;;;;4862307;29;19972;-86
2023/10/24 10:51:13;;;;;;;;;;;13.50;99.90;;;;;;4862377;29;20294;-86
2023/10/24 10:53:52;;;;;;;;;;;13.50;99.90;;;;;;4847068;29;19928;-88
2023/10/24 10:56:23;;;;;;;;;;;13.60;99.90;;;;;;4863110;29;19928;-87
2023/10/24 10:58:49;;;;;;;;;;;13.60;99.90;;;;;;4863090;29;19975;-89
2023/10/24 11:01:28;;;;;;;;;;;13.60;99.90;;;;;;4862202;29;19975;-89
2023/10/24 11:03:56;;;;;;;;;;;13.60;99.90;;;;;;4862177;29;19928;-88
2023/10/24 11:06:25;;;;;;;;;;;13.60;99.90;;;;;;4862127;29;20038;-89
2023/10/24 11:09:09;;;;;;;;;;;13.60;99.90;;;;;;4862209;29;19971;-88
2023/10/24 11:11:37;;;;;;;;;;;13.50;99.90;;;;;;4863137;29;19994;-88
2023/10/24 11:14:32;;;;;;;;;;;13.40;99.90;;;;;;4848992;29;20015;-88
2023/10/24 11:16:59;;;;;;;;;;;13.30;99.90;;;;;;4846106;29;19935;-89
2023/10/24 11:19:24;;;;;;;;;;;13.20;99.90;;;;;;4846465;29;19971;-87
2023/10/24 11:21:51;;;;;;;;;;;13.20;99.90;;;;;;4862399;29;19928;-88
2023/10/24 11:24:19;;;;;;;;;;;13.10;99.90;;;;;;4862836;29;19928;-91
2023/10/24 11:26:44;;;;;;;;;;;13.00;99.90;;;;;;4862863;29;20335;-86
2023/10/24 11:29:11;;;;;;;;;;;13.00;99.90;;;;;;4862232;29;19975;-87
2023/10/24 11:31:37;;;;;;;;;;;13.00;99.90;;;;;;4846546;29;19935;-86
2023/10/24 11:34:03;;;;;;;;;;;12.90;99.90;;;;;;4862520;29;19928;-88
2023/10/24 11:36:29;;;;;;;;;;;13.00;99.90;;;;;;4862359;29;20386;-90
2023/10/24 11:38:58;;;;;;;;;;;13.00;99.90;;;;;;4862782;29;19979;-87
2023/10/24 11:41:25;;;;;;;;;;;13.10;99.90;;;;;;4846522;29;20044;-89
2023/10/24 11:43:51;;;;;;;;;;;13.20;99.90;;;;;;4861358;29;19939;-88
2023/10/24 11:46:16;;;;;;;;;;;13.40;99.90;;;;;;4861266;29;19928;-85
2023/10/24 11:48:42;;;;;;;;;;;13.60;99.90;;;;;;4861389;29;20015;-87
2023/10/24 11:51:08;;;;;;;;;;;13.70;99.90;;;;;;4845943;29;19950;-87
2023/10/24 11:53:34;;;;;;;;;;;13.90;99.90;;;;;;4861165;29;19981;-88
2023/10/24 11:56:00;;;;;;;;;;;14.10;99.90;;;;;;4861270;29;20435;-89
2023/10/24 11:58:32;;;;;;;;;;;14.20;99.90;;;;;;4846562;29;19971;-87
2023/10/24 12:00:58;;;;;;;;;;;14.20;99.90;;;;;;4861107;29;19928;-87
2023/10/24 12:03:24;;;;;;;;;;;14.20;99.90;;;;;;4861142;29;19928;-89
2023/10/24 12:05:50;;;;;;;;;;;14.10;99.90;;;;;;4862107;29;20365;-89
2023/10/24 12:08:21;;;;;;;;;;;14.00;99.90;;;;;;4861117;29;19982;-88
2023/10/24 12:10:51;;;;;;;;;;;13.90;99.90;;;;;;4861884;29;19928;-89
2023/10/24 12:13:17;;;;;;;;;;;13.80;99.90;;;;;;4860907;29;19936;-87
2023/10/24 12:15:43;;;;;;;;;;;13.70;99.90;;;;;;4861351;29;19928;-88
2023/10/24 12:18:08;;;;;;;;;;;13.60;99.90;;;;;;4861665;29;20432;-87
2023/10/24 12:20:34;;;;;;;;;;;13.60;99.90;;;;;;4860125;29;19928;-87
2023/10/24 12:22:59;;;;;;;;;;;13.50;99.90;;;;;;4845639;29;20022;-88
2023/10/24 12:25:25;;;;;;;;;;;13.40;99.90;;;;;;4860972;29;19997;-87
2023/10/24 12:27:50;;;;;;;;;;;13.40;99.90;;;;;;4845582;29;19936;-87
2023/10/24 12:30:16;;;;;;;;;;;13.40;99.90;;;;;;4860670;29;19935;-83
2023/10/24 12:32:42;;;;;;;;;;;13.40;99.90;;;;;;4860321;29;19936;-88
2023/10/24 12:35:08;;;;;;;;;;;13.30;99.90;;;;;;4830083;29;19971;-88
2023/10/24 12:37:34;;;;;;;;;;;13.40;99.90;;;;;;4860747;29;20018;-87
2023/10/24 12:40:01;;;;;;;;;;;13.40;99.90;;;;;;4845249;29;19976;-86
2023/10/24 12:42:26;;;;;;;;;;;13.40;99.90;;;;;;4860660;29;19929;-88
2023/10/24 12:44:52;;;;;;;;;;;13.40;99.90;;;;;;4861259;29;20019;-87
2023/10/24 12:47:19;;;;;;;;;;;13.30;99.90;;;;;;4845169;29;19975;-87
2023/10/24 12:49:45;;;;;;;;;;;13.30;99.90;;;;;;4861283;29;19928;-88
2023/10/24 12:52:11;;;;;;;;;;;13.30;99.90;;;;;;4860680;29;19932;-87
2023/10/24 12:54:37;;;;;;;;;;;13.20;99.90;;;;;;4848088;29;20015;-88
2023/10/24 12:57:02;;;;;;;;;;;13.20;99.90;;;;;;4861069;29;19928;-86
2023/10/24 12:59:29;;;;;;;;;;;13.20;99.90;;;;;;4860294;29;19975;-89
2023/10/24 13:01:55;;;;;;;;;;;13.10;99.90;;;;;;4860438;29;19949;-86
2023/10/24 13:04:21;;;;;;;;;;;13.10;99.90;;;;;;4861128;29;19952;-88
2023/10/24 13:06:46;;;;;;;;;;;13.10;99.90;;;;;;4844983;29;19928;-88
2023/10/24 13:09:12;;;;;;;;;;;13.10;99.90;;;;;;4845042;29;20027;-88
2023/10/24 13:11:41;;;;;;;;;;;13.20;99.90;;;;;;4860306;29;19928;-85
2023/10/24 13:14:07;;;;;;;;;;;13.20;99.90;;;;;;4845168;29;19934;-87
2023/10/24 13:16:33;;;;;;;;;;;13.30;99.90;;;;;;4860173;29;20279;-89
2023/10/24 13:18:59;;;;;;;;;;;13.30;99.90;;;;;;4860533;29;19928;-87
2023/10/24 13:21:24;;;;;;;;;;;13.30;99.90;;;;;;4859686;29;19928;-85
2023/10/24 13:23:50;;;;;;;;;;;13.30;99.90;;;;;;4860212;29;19979;-85
2023/10/24 13:26:15;;;;;;;;;;;13.30;99.90;;;;;;4860275;29;19924;-86
2023/10/24 13:28:41;;;;;;;;;;;13.30;99.90;;;;;;4861169;29;20332;-87
2023/10/24 13:31:07;;;;;;;;;;;13.40;99.90;;;;;;4860628;29;20011;-86
2023/10/24 13:33:32;;;;;;;;;;;13.40;99.90;;;;;;4844796;29;19924;-88
2023/10/24 13:35:58;;;;;;;;;;;13.40;99.90;;;;;;4859936;29;19924;-89
2023/10/24 13:38:23;;;;;;;;;;;13.40;99.90;;;;;;4860436;29;19928;-88
2023/10/24 13:40:49;;;;;;;;;;;13.40;99.90;;;;;;4863967;29;19998;-86
2023/10/24 13:43:14;;;;;;;;;;;13.30;99.90;;;;;;4865439;29;19932;-88
2023/10/24 13:45:40;;;;;;;;;;;13.30;99.90;;;;;;4863887;29;19924;-87
2023/10/24 13:48:06;;;;;;;;;;;13.20;99.90;;;;;;4848507;29;19931;-88
2023/10/24 13:50:31;;;;;;;;;;;13.20;99.90;;;;;;4864381;29;19924;-85
2023/10/24 13:52:57;;;;;;;;;;;13.20;99.90;;;;;;4865123;29;20361;-86
2023/10/24 13:55:22;;;;;;;;;;;13.10;99.90;;;;;;4863510;29;19924;-88
2023/10/24 13:57:48;;;;;;;;;;;13.10;99.90;;;;;;4864393;29;19931;-87
2023/10/24 14:00:14;;;;;;;;;;;13.00;99.90;;;;;;4863613;29;19947;-86
2023/10/24 14:02:39;;;;;;;;;;;12.90;99.90;;;;;;4863595;29;20272;-86
2023/10/24 14:05:05;;;;;;;;;;;12.90;99.90;;;;;;4863663;29;19931;-86
2023/10/24 14:07:31;;;;;;;;;;;12.90;99.90;;;;;;4848624;29;19951;-88
2023/10/24 14:09:57;;;;;;;;;;;13.00;99.90;;;;;;4863208;29;19931;-86
2023/10/24 14:12:22;;;;;;;;;;;12.90;99.90;;;;;;4863036;29;19963;-89